Time,TemperatureF,DewpointF,PressureIn,WindDirection,WindDirectionDegrees,WindSpeedMPH,WindSpeedGustMPH,Humidity,HourlyPrecipIn,Conditions,Clouds,dailyrainin,SoftwareType,DateUTC
2013-06-08 16:50:00,73.9,73.6,30.27,SW,225,5.1,-999.0,99,-99.99,,,0.00,Acu-Link.com,2013-06-08 20:50:00,
2013-06-08 17:05:00,73.2,72.9,30.29,SW,225,2.2,-999.0,99,-99.99,,,0.00,Acu-Link.com,2013-06-08 21:05:00,
2013-06-08 17:20:00,73.6,73.3,30.29,NW,315,3.1,-999.0,99,-99.99,,,0.00,Acu-Link.com,2013-06-08 21:20:00,
2013-06-08 17:36:00,74.3,74.0,30.29,West,270,2.2,-999.0,99,-99.99,,,0.00,Acu-Link.com,2013-06-08 21:36:00,
2013-06-08 18:06:00,73.6,73.3,30.30,WNW,292,2.2,-999.0,99,-99.99,,,0.00,Acu-Link.com,2013-06-08 22:06:00,
2013-06-08 18:21:00,73.2,72.9,30.30,West,270,2.2,-999.0,99,-99.99,,,0.00,Acu-Link.com,2013-06-08 22:21:00,
2013-06-08 18:36:00,73.4,73.1,30.31,ESE,112,1.1,-999.0,99,-99.99,,,0.00,Acu-Link.com,2013-06-08 22:36:00,
2013-06-08 18:52:00,73.0,72.7,30.31,WNW,292,2.7,-999.0,99,-99.99,,,0.00,Acu-Link.com,2013-06-08 22:52:00,
2013-06-08 19:07:00,71.4,71.1,30.32,WNW,292,2.7,-999.0,99,-99.99,,,0.00,Acu-Link.com,2013-06-08 23:07:00,
2013-06-08 19:22:00,70.9,70.6,30.33,SSW,202,0.0,-999.0,99,-99.99,,,0.00,Acu-Link.com,2013-06-08 23:22:00,
2013-06-08 19:37:00,70.5,70.2,30.33,East,90,0.0,-999.0,99,-99.99,,,0.00,Acu-Link.com,2013-06-08 23:37:00,
2013-06-08 19:53:00,69.6,69.3,30.34,SW,225,0.0,-999.0,99,-99.99,,,0.00,Acu-Link.com,2013-06-08 23:53:00,
2013-06-08 20:08:00,68.7,68.4,30.34,ESE,112,0.0,-999.0,99,-99.99,,,0.00,Acu-Link.com,2013-06-09 00:08:00,
2013-06-08 20:23:00,68.5,68.2,30.35,SW,225,2.7,-999.0,99,-99.99,,,0.00,Acu-Link.com,2013-06-09 00:23:00,
2013-06-08 20:38:00,66.4,66.1,30.35,West,270,0.0,-999.0,99,-99.99,,,0.00,Acu-Link.com,2013-06-09 00:38:00,
2013-06-08 20:53:00,64.4,20.0,30.35,SSW,202,0.0,-999.0,18,-99.99,,,0.00,Acu-Link.com,2013-06-09 00:53:00,
2013-06-08 21:09:00,63.3,46.9,30.36,West,270,0.0,-999.0,55,-99.99,,,0.00,Acu-Link.com,2013-06-09 01:09:00,
2013-06-08 21:24:00,62.2,52.7,30.36,West,270,0.0,-999.0,71,-99.99,,,0.00,Acu-Link.com,2013-06-09 01:24:00,
2013-06-08 21:39:00,61.2,55.3,30.37,East,90,0.0,-999.0,81,-99.99,,,0.00,Acu-Link.com,2013-06-09 01:39:00,
2013-06-08 21:54:00,60.6,57.0,30.39,WSW,247,0.0,-999.0,88,-99.99,,,0.00,Acu-Link.com,2013-06-09 01:54:00,
2013-06-08 22:09:00,59.9,51.6,30.40,WSW,247,0.0,-999.0,74,-99.99,,,0.00,Acu-Link.com,2013-06-09 02:09:00,
2013-06-08 22:25:00,59.0,50.0,30.40,SW,225,0.0,-999.0,72,-99.99,,,0.00,Acu-Link.com,2013-06-09 02:25:00,
2013-06-08 22:40:00,58.6,53.8,30.40,SSW,202,0.0,-999.0,84,-99.99,,,0.00,Acu-Link.com,2013-06-09 02:40:00,
2013-06-08 22:55:00,57.9,53.4,30.41,East,90,0.0,-999.0,85,-99.99,,,0.00,Acu-Link.com,2013-06-09 02:55:00,
2013-06-08 23:10:00,57.4,52.3,30.41,SSW,202,0.0,-999.0,83,-99.99,,,0.00,Acu-Link.com,2013-06-09 03:10:00,
2013-06-08 23:25:00,56.7,52.8,30.41,ENE,67,0.0,-999.0,87,-99.99,,,0.00,Acu-Link.com,2013-06-09 03:25:00,
2013-06-08 23:41:00,56.5,55.9,30.41,ESE,112,0.0,-999.0,98,-99.99,,,0.00,Acu-Link.com,2013-06-09 03:41:00,
2013-06-08 23:56:00,56.5,55.9,30.42,ESE,112,0.0,-999.0,98,-99.99,,,0.00,Acu-Link.com,2013-06-09 03:56:00,